createdAt,value
2022-11-16T00:02:21.095Z,10.67
2022-11-16T00:04:47.624Z,10.71
2022-11-16T00:07:14.078Z,10.69
2022-11-16T00:09:40.614Z,10.74
2022-11-16T00:12:08.175Z,10.73
2022-11-16T00:14:36.050Z,10.79
2022-11-16T00:17:03.584Z,10.72
2022-11-16T00:19:30.364Z,10.71
2022-11-16T00:21:57.027Z,10.69
2022-11-16T00:24:23.869Z,10.67
2022-11-16T00:26:51.383Z,10.64
2022-11-16T00:29:22.789Z,10.65
2022-11-16T00:31:49.826Z,10.67
2022-11-16T00:34:17.290Z,10.63
2022-11-16T00:36:44.127Z,10.66
2022-11-16T00:39:12.557Z,10.63
2022-11-16T00:41:39.560Z,10.65
2022-11-16T00:44:06.122Z,10.61
2022-11-16T00:46:32.730Z,10.62
2022-11-16T00:48:59.345Z,10.65
2022-11-16T00:51:25.799Z,10.62
2022-11-16T00:53:52.217Z,10.65
2022-11-16T00:56:18.747Z,10.62
2022-11-16T00:58:45.160Z,10.62
2022-11-16T01:01:11.967Z,10.60
2022-11-16T01:03:38.710Z,10.64
2022-11-16T01:06:08.155Z,10.62
2022-11-16T01:08:37.464Z,10.64
2022-11-16T01:11:04.932Z,10.63
2022-11-16T01:13:31.682Z,10.62
2022-11-16T01:15:58.415Z,10.60
2022-11-16T01:18:24.812Z,10.59
2022-11-16T01:20:51.577Z,10.54
2022-11-16T01:23:18.026Z,10.52
2022-11-16T01:25:44.456Z,10.54
2022-11-16T01:28:10.995Z,10.46
2022-11-16T01:30:37.418Z,10.45
2022-11-16T01:33:04.205Z,10.44
2022-11-16T01:35:30.698Z,10.38
2022-11-16T01:37:57.114Z,10.42
2022-11-16T01:40:23.527Z,10.39
2022-11-16T01:42:50.129Z,10.40
2022-11-16T01:45:19.491Z,10.43
2022-11-16T01:47:46.768Z,10.43
2022-11-16T01:50:16.762Z,10.38
2022-11-16T01:52:48.974Z,10.38
2022-11-16T01:55:15.912Z,10.38
2022-11-16T01:57:44.224Z,10.40
2022-11-16T02:00:13.292Z,10.43
2022-11-16T02:02:39.758Z,10.40
2022-11-16T02:05:07.660Z,10.38
2022-11-16T02:07:41.857Z,10.47
2022-11-16T02:10:30.947Z,10.41
2022-11-16T02:13:31.885Z,10.37
2022-11-16T02:16:30.636Z,10.43
2022-11-16T02:19:24.399Z,10.28
2022-11-16T02:21:56.999Z,10.24
2022-11-16T02:24:42.467Z,10.24
2022-11-16T02:27:44.473Z,10.28
2022-11-16T02:30:11.038Z,10.25
2022-11-16T02:32:47.283Z,10.27
2022-11-16T02:35:21.663Z,10.29
2022-11-16T02:37:56.383Z,10.29
2022-11-16T02:40:26.322Z,10.24
2022-11-16T02:42:57.946Z,10.24
2022-11-16T02:45:28.420Z,10.17
2022-11-16T02:48:00.162Z,10.24
2022-11-16T02:50:27.730Z,10.22
2022-11-16T02:52:54.169Z,10.14
2022-11-16T02:55:21.192Z,10.19
2022-11-16T02:57:57.800Z,10.18
2022-11-16T03:00:29.057Z,10.13
2022-11-16T03:03:08.030Z,10.24
2022-11-16T03:05:41.242Z,10.22
2022-11-16T03:08:12.999Z,10.18
2022-11-16T03:10:41.828Z,10.12
2022-11-16T03:13:11.974Z,10.02
2022-11-16T03:15:41.666Z,10.13
2022-11-16T03:18:08.961Z,10.13
2022-11-16T03:20:37.858Z,10.05
2022-11-16T03:23:08.413Z,10.17
2022-11-16T03:25:45.958Z,10.09
2022-11-16T03:28:21.861Z,10.11
2022-11-16T03:31:13.364Z,10.16
2022-11-16T03:33:45.885Z,10.17
2022-11-16T03:36:20.389Z,10.14
2022-11-16T03:38:50.141Z,10.06
2022-11-16T03:41:19.320Z,10.08
2022-11-16T03:43:48.988Z,10.14
2022-11-16T03:46:16.646Z,10.10
2022-11-16T03:48:43.331Z,10.08
2022-11-16T03:51:11.087Z,10.10
2022-11-16T03:53:37.965Z,10.11
2022-11-16T03:56:04.953Z,10.10
2022-11-16T03:58:32.902Z,10.07
2022-11-16T04:00:59.879Z,10.03
2022-11-16T04:03:26.333Z,10.06
2022-11-16T04:05:53.300Z,10.08
2022-11-16T04:08:19.892Z,10.07
2022-11-16T04:10:46.364Z,10.06
2022-11-16T04:13:14.525Z,10.11
2022-11-16T04:15:41.176Z,10.15
2022-11-16T04:18:10.227Z,10.09
2022-11-16T04:20:36.649Z,10.08
2022-11-16T04:23:08.847Z,10.01
2022-11-16T04:25:39.377Z,10.02
2022-11-16T04:28:06.252Z,10.05
2022-11-16T04:30:32.945Z,10.03
2022-11-16T04:32:59.365Z,10.01
2022-11-16T04:35:25.866Z,10.02
2022-11-16T04:37:53.081Z,10.08
2022-11-16T04:40:25.340Z,10.07
2022-11-16T04:42:53.100Z,10.07
2022-11-16T04:45:20.734Z,10.12
2022-11-16T04:47:50.420Z,10.07
2022-11-16T04:50:18.387Z,10.01
2022-11-16T04:52:45.427Z,10.05
2022-11-16T04:55:12.549Z,10.03
2022-11-16T04:57:40.235Z,9.99
2022-11-16T05:00:08.017Z,9.95
2022-11-16T05:02:34.420Z,10.01
2022-11-16T05:05:00.814Z,10.07
2022-11-16T05:07:27.391Z,10.09
2022-11-16T05:09:53.951Z,9.98
2022-11-16T05:12:26.254Z,10.01
2022-11-16T05:14:53.328Z,9.92
2022-11-16T05:17:19.778Z,9.96
2022-11-16T05:19:46.275Z,9.95
2022-11-16T05:22:12.995Z,10.01
2022-11-16T05:24:39.397Z,10.02
2022-11-16T05:27:12.321Z,10.00
2022-11-16T05:29:39.429Z,9.98
2022-11-16T05:32:07.284Z,9.98
2022-11-16T05:34:33.976Z,9.99
2022-11-16T05:37:00.977Z,9.98
2022-11-16T05:39:27.958Z,9.97
2022-11-16T05:41:55.797Z,9.95
2022-11-16T05:44:22.829Z,9.95
2022-11-16T05:46:49.332Z,9.92
2022-11-16T05:49:17.102Z,9.95
2022-11-16T05:51:45.495Z,9.97
2022-11-16T05:54:14.444Z,9.97
2022-11-16T05:56:41.206Z,9.95
2022-11-16T05:59:11.242Z,9.87
2022-11-16T06:01:42.004Z,9.94
2022-11-16T06:04:09.083Z,9.97
2022-11-16T06:06:35.584Z,10.00
2022-11-16T06:09:03.076Z,9.86
2022-11-16T06:11:35.346Z,9.96
2022-11-16T06:14:02.317Z,9.96
2022-11-16T06:16:28.836Z,9.97
2022-11-16T06:18:55.296Z,9.99
2022-11-16T06:21:21.788Z,9.89
2022-11-16T06:23:48.884Z,10.01
2022-11-16T06:26:15.320Z,9.90
2022-11-16T06:28:42.032Z,9.88
2022-11-16T06:31:08.557Z,9.98
2022-11-16T06:33:35.089Z,9.96
2022-11-16T06:36:01.550Z,10.03
2022-11-16T06:38:28.270Z,9.96
2022-11-16T06:40:57.635Z,10.06
2022-11-16T06:43:25.826Z,10.00
2022-11-16T06:45:55.077Z,10.16
2022-11-16T06:48:22.172Z,10.21
2022-11-16T06:50:50.245Z,10.21
2022-11-16T06:53:17.172Z,10.23
2022-11-16T06:55:44.132Z,10.16
2022-11-16T06:58:10.557Z,10.18
2022-11-16T07:00:37.315Z,10.16
2022-11-16T07:03:04.317Z,10.14
2022-11-16T07:05:32.111Z,10.10
2022-11-16T07:07:58.844Z,10.08
2022-11-16T07:10:26.197Z,10.09
2022-11-16T07:12:52.878Z,10.08
2022-11-16T07:15:19.370Z,10.04
2022-11-16T07:17:47.347Z,10.01
2022-11-16T07:20:14.284Z,10.09
2022-11-16T07:22:46.924Z,10.11
2022-11-16T07:25:13.531Z,10.07
2022-11-16T07:27:39.977Z,10.02
2022-11-16T07:30:07.111Z,10.12
2022-11-16T07:32:33.743Z,10.10
2022-11-16T07:35:00.369Z,10.18
2022-11-16T07:37:35.379Z,10.13
2022-11-16T07:40:02.191Z,10.10
2022-11-16T07:42:28.899Z,10.14
2022-11-16T07:44:55.628Z,10.12
2022-11-16T07:47:22.102Z,10.12
2022-11-16T07:49:49.061Z,10.11
2022-11-16T07:52:15.639Z,10.12
2022-11-16T07:54:44.746Z,10.13
2022-11-16T07:57:11.651Z,10.19
2022-11-16T07:59:38.263Z,10.18
2022-11-16T08:02:04.733Z,10.23
2022-11-16T08:04:31.310Z,10.21
2022-11-16T08:06:58.108Z,10.07
2022-11-16T08:09:24.595Z,10.20
2022-11-16T08:11:51.255Z,10.19
2022-11-16T08:14:17.754Z,10.14
2022-11-16T08:16:44.377Z,10.23
2022-11-16T08:19:10.927Z,10.22
2022-11-16T08:21:37.368Z,10.23
2022-11-16T08:24:04.299Z,10.31
2022-11-16T08:26:31.748Z,10.27
2022-11-16T08:28:58.240Z,10.29
2022-11-16T08:31:27.846Z,10.41
2022-11-16T08:33:55.053Z,10.30
2022-11-16T08:36:21.656Z,10.27
2022-11-16T08:38:50.538Z,10.37
2022-11-16T08:41:18.346Z,10.36
2022-11-16T08:43:45.583Z,10.29
2022-11-16T08:46:12.107Z,10.29
2022-11-16T08:48:39.029Z,10.33
2022-11-16T08:51:19.901Z,10.41
2022-11-16T08:53:48.632Z,10.40
2022-11-16T08:56:17.322Z,10.57
2022-11-16T08:58:43.873Z,10.64
2022-11-16T09:01:13.011Z,10.60
2022-11-16T09:03:40.309Z,10.53
2022-11-16T09:06:08.001Z,10.56
2022-11-16T09:08:37.041Z,10.78
2022-11-16T09:11:05.648Z,10.65
2022-11-16T09:13:32.319Z,10.51
2022-11-16T09:16:00.609Z,10.48
2022-11-16T09:18:28.008Z,10.41
2022-11-16T09:20:55.242Z,10.46
2022-11-16T09:23:25.331Z,10.39
2022-11-16T09:25:52.891Z,10.35
2022-11-16T09:28:20.188Z,10.49
2022-11-16T09:30:49.985Z,10.51
2022-11-16T09:33:16.694Z,10.48
2022-11-16T09:35:43.151Z,10.40
2022-11-16T09:38:09.585Z,10.37
2022-11-16T09:40:46.122Z,10.39
2022-11-16T09:43:26.333Z,10.41
2022-11-16T09:46:05.487Z,10.46
2022-11-16T09:48:36.786Z,10.39
2022-11-16T09:51:07.838Z,10.40
2022-11-16T09:53:41.595Z,10.44
2022-11-16T09:56:17.802Z,10.46
2022-11-16T09:58:58.557Z,10.45
2022-11-16T10:01:35.137Z,10.60
2022-11-16T10:04:13.676Z,10.59
2022-11-16T10:06:49.164Z,10.67
2022-11-16T10:09:15.895Z,10.69
2022-11-16T10:11:56.777Z,10.74
2022-11-16T10:15:00.843Z,10.76
2022-11-16T10:17:55.645Z,10.79
2022-11-16T10:20:44.360Z,10.83
2022-11-16T10:23:35.510Z,10.95
2022-11-16T10:26:25.677Z,11.01
2022-11-16T10:29:23.280Z,11.03
2022-11-16T10:32:17.790Z,10.93
2022-11-16T10:35:03.477Z,10.84
2022-11-16T10:37:34.253Z,10.72
2022-11-16T10:40:17.277Z,10.72
2022-11-16T10:42:49.238Z,11.09
2022-11-16T10:45:22.510Z,10.88
2022-11-16T10:47:51.801Z,10.80
2022-11-16T10:50:40.881Z,11.01
2022-11-16T10:53:12.947Z,11.13
2022-11-16T10:55:39.521Z,11.18
2022-11-16T10:58:06.333Z,11.31
2022-11-16T11:00:42.407Z,11.16
2022-11-16T11:03:09.470Z,10.99
2022-11-16T11:05:36.853Z,11.10
2022-11-16T11:08:11.869Z,11.06
2022-11-16T11:10:41.213Z,11.18
2022-11-16T11:13:10.785Z,11.04
2022-11-16T11:15:42.453Z,11.19
2022-11-16T11:18:18.323Z,11.02
2022-11-16T11:20:48.866Z,11.37
2022-11-16T11:23:22.298Z,11.32
2022-11-16T11:25:55.220Z,11.24
2022-11-16T11:28:33.660Z,11.25
2022-11-16T11:31:45.005Z,11.39
2022-11-16T11:34:20.208Z,11.56
2022-11-16T11:36:52.740Z,11.89
2022-11-16T11:39:19.649Z,12.18
2022-11-16T11:42:00.885Z,12.49
2022-11-16T11:44:53.860Z,12.39
2022-11-16T11:47:58.180Z,12.50
2022-11-16T11:50:42.983Z,12.47
2022-11-16T11:53:10.432Z,12.57
2022-11-16T11:55:37.501Z,12.46
2022-11-16T11:58:05.986Z,12.83
2022-11-16T12:00:51.162Z,12.85
2022-11-16T12:03:55.329Z,12.75
2022-11-16T12:06:47.126Z,12.55
2022-11-16T12:09:42.114Z,12.45
2022-11-16T12:12:14.965Z,12.52
2022-11-16T12:15:10.684Z,12.35
2022-11-16T12:18:12.468Z,12.30
2022-11-16T12:20:56.939Z,12.33
2022-11-16T12:23:56.316Z,12.28
2022-11-16T12:26:52.434Z,12.29
2022-11-16T12:29:26.680Z,12.61
2022-11-16T12:32:09.252Z,12.60
2022-11-16T12:35:13.133Z,12.74
2022-11-16T12:38:20.527Z,12.95
2022-11-16T12:41:14.159Z,13.26
2022-11-16T12:44:09.284Z,13.47
2022-11-16T12:46:52.193Z,13.76
2022-11-16T12:49:51.344Z,14.19
2022-11-16T12:52:44.034Z,14.71
2022-11-16T12:55:25.968Z,15.06
2022-11-16T12:58:10.886Z,15.42
2022-11-16T13:01:05.355Z,15.66
2022-11-16T13:03:45.840Z,15.69
2022-11-16T13:06:20.047Z,15.50
2022-11-16T13:09:11.221Z,15.77
2022-11-16T13:11:43.438Z,16.18
2022-11-16T13:14:21.619Z,16.14
2022-11-16T13:16:50.572Z,15.72
2022-11-16T13:19:17.961Z,16.15
2022-11-16T13:22:07.602Z,15.66
2022-11-16T13:24:53.011Z,15.37
2022-11-16T13:27:22.882Z,15.05
2022-11-16T13:30:12.648Z,14.84
2022-11-16T13:32:57.380Z,14.95
2022-11-16T13:35:24.073Z,14.99
2022-11-16T13:37:51.600Z,14.77
2022-11-16T13:40:34.419Z,14.89
2022-11-16T13:43:03.135Z,14.90
2022-11-16T13:45:36.965Z,15.16
2022-11-16T13:48:15.812Z,15.79
2022-11-16T13:50:51.769Z,16.02
2022-11-16T13:56:11.162Z,16.36
2022-11-16T13:58:43.861Z,16.15
2022-11-16T14:01:12.957Z,15.88
2022-11-16T14:04:09.082Z,15.89
2022-11-16T14:06:44.690Z,15.83
2022-11-16T14:09:47.432Z,15.90
2022-11-16T14:12:38.907Z,15.72
2022-11-16T14:15:14.296Z,15.85
2022-11-16T14:17:58.992Z,15.66
2022-11-16T14:20:38.215Z,15.09
2022-11-16T14:23:31.662Z,14.63
2022-11-16T14:26:24.221Z,14.18
2022-11-16T14:28:53.953Z,13.90
2022-11-16T14:31:46.200Z,13.56
2022-11-16T14:34:19.037Z,13.30
2022-11-16T14:36:47.079Z,13.25
2022-11-16T14:39:35.531Z,12.97
2022-11-16T14:42:05.769Z,12.83
2022-11-16T14:44:38.110Z,12.70
2022-11-16T14:47:05.150Z,12.62
2022-11-16T14:49:34.723Z,12.52
2022-11-16T14:52:03.414Z,12.38
2022-11-16T14:54:42.462Z,12.33
2022-11-16T14:57:21.547Z,12.13
2022-11-16T14:59:48.393Z,12.01
2022-11-16T15:02:20.887Z,11.91
2022-11-16T15:04:48.540Z,11.78
2022-11-16T15:07:16.241Z,11.70
2022-11-16T15:09:50.359Z,11.63
2022-11-16T15:12:20.052Z,11.48
2022-11-16T15:14:53.060Z,11.38
2022-11-16T15:17:31.721Z,11.31
2022-11-16T15:20:02.293Z,11.20
2022-11-16T15:22:42.449Z,11.09
2022-11-16T15:25:30.398Z,11.02
2022-11-16T15:27:59.229Z,10.90
2022-11-16T15:30:29.221Z,10.80
2022-11-16T15:32:56.513Z,10.73
2022-11-16T15:35:32.887Z,10.65
2022-11-16T15:38:20.339Z,10.57
2022-11-16T15:41:05.394Z,10.44
2022-11-16T15:43:49.629Z,10.46
2022-11-16T15:46:23.281Z,10.42
2022-11-16T15:48:50.740Z,10.43
2022-11-16T15:51:19.894Z,10.32
2022-11-16T15:53:48.549Z,10.43
2022-11-16T15:56:27.311Z,10.47
2022-11-16T15:58:55.792Z,10.39
2022-11-16T16:01:23.344Z,10.31
2022-11-16T16:04:01.468Z,10.24
2022-11-16T16:06:48.884Z,10.07
2022-11-16T16:09:20.385Z,9.92
2022-11-16T16:11:47.098Z,9.85
2022-11-16T16:14:22.809Z,9.78
2022-11-16T16:16:59.878Z,9.73
2022-11-16T16:19:32.977Z,9.65
2022-11-16T16:22:00.041Z,9.61
2022-11-16T16:24:35.320Z,9.51
2022-11-16T16:27:02.194Z,9.43
2022-11-16T16:29:28.709Z,9.31
2022-11-16T16:31:56.132Z,9.26
2022-11-16T16:34:22.626Z,9.21
2022-11-16T16:36:49.397Z,9.07
2022-11-16T16:39:15.944Z,9.05
2022-11-16T16:41:42.364Z,9.04
2022-11-16T16:44:14.018Z,9.02
2022-11-16T16:46:40.456Z,8.97
2022-11-16T16:49:07.094Z,8.96
2022-11-16T16:51:33.994Z,8.94
2022-11-16T16:54:00.497Z,8.89
2022-11-16T16:56:26.968Z,8.80
2022-11-16T16:58:53.387Z,8.63
2022-11-16T17:01:20.230Z,8.62
2022-11-16T17:03:46.686Z,8.55
2022-11-16T17:06:13.239Z,8.44
2022-11-16T17:08:39.739Z,8.52
2022-11-16T17:11:06.164Z,8.43
2022-11-16T17:13:33.889Z,8.43
2022-11-16T17:16:04.980Z,8.42
2022-11-16T17:18:31.617Z,8.39
2022-11-16T17:21:07.367Z,8.32
2022-11-16T17:23:35.139Z,8.29
2022-11-16T17:26:05.978Z,8.25
2022-11-16T17:28:40.608Z,8.23
2022-11-16T17:31:09.483Z,8.13
2022-11-16T17:33:46.096Z,8.08
2022-11-16T17:36:22.707Z,8.06
2022-11-16T17:38:50.137Z,7.95
2022-11-16T17:41:22.955Z,7.91
2022-11-16T17:43:52.968Z,7.85
2022-11-16T17:46:26.112Z,7.72
2022-11-16T17:48:53.138Z,7.75
2022-11-16T17:51:24.464Z,7.72
2022-11-16T17:53:51.513Z,7.75
2022-11-16T17:56:21.504Z,7.69
2022-11-16T17:58:48.393Z,7.65
2022-11-16T18:01:14.898Z,7.60
2022-11-16T18:03:42.427Z,7.62
2022-11-16T18:06:12.595Z,7.53
2022-11-16T18:08:40.632Z,7.58
2022-11-16T18:11:11.203Z,7.50
2022-11-16T18:13:38.038Z,7.38
2022-11-16T18:16:15.652Z,7.35
2022-11-16T18:18:43.242Z,7.35
2022-11-16T18:21:10.177Z,7.38
2022-11-16T18:23:38.155Z,7.40
2022-11-16T18:26:09.169Z,7.30
2022-11-16T18:28:36.585Z,7.25
2022-11-16T18:31:08.620Z,7.19
2022-11-16T18:33:39.603Z,7.14
2022-11-16T18:36:08.034Z,7.07
2022-11-16T18:38:34.885Z,7.22
2022-11-16T18:41:13.236Z,7.31
2022-11-16T18:43:57.743Z,7.30
2022-11-16T18:46:27.032Z,7.26
2022-11-16T18:48:53.975Z,7.22
2022-11-16T18:51:21.761Z,7.29
2022-11-16T18:53:49.046Z,7.35
2022-11-16T18:56:16.226Z,7.39
2022-11-16T18:58:50.236Z,7.44
2022-11-16T19:01:18.973Z,7.51
2022-11-16T19:03:45.488Z,7.49
2022-11-16T19:06:12.819Z,7.54
2022-11-16T19:08:40.499Z,7.55
2022-11-16T19:11:09.284Z,7.55
2022-11-16T19:13:37.435Z,7.60
2022-11-16T19:16:04.237Z,7.62
2022-11-16T19:18:30.670Z,7.64
2022-11-16T19:21:23.761Z,7.63
2022-11-16T19:23:52.787Z,7.64
2022-11-16T19:26:21.517Z,7.64
2022-11-16T19:28:49.560Z,7.63
2022-11-16T19:31:24.618Z,7.65
2022-11-16T19:33:59.808Z,7.65
2022-11-16T19:36:27.562Z,7.71
2022-11-16T19:38:54.049Z,7.71
2022-11-16T19:41:21.264Z,7.73
2022-11-16T19:43:48.517Z,7.71
2022-11-16T19:46:16.981Z,7.79
2022-11-16T19:48:44.622Z,7.77
2022-11-16T19:51:14.872Z,7.79
2022-11-16T19:53:44.206Z,7.74
2022-11-16T19:56:12.690Z,7.85
2022-11-16T19:58:39.574Z,7.91
2022-11-16T20:01:10.145Z,7.95
2022-11-16T20:03:37.275Z,7.87
2022-11-16T20:06:12.394Z,7.80
2022-11-16T20:08:40.237Z,7.79
2022-11-16T20:11:15.811Z,7.82
2022-11-16T20:13:42.964Z,7.78
2022-11-16T20:16:11.377Z,7.83
2022-11-16T20:18:39.347Z,7.88
2022-11-16T20:21:07.324Z,7.80
2022-11-16T20:23:35.013Z,7.85
2022-11-16T20:26:09.319Z,7.80
2022-11-16T20:28:37.994Z,7.82
2022-11-16T20:31:08.364Z,7.90
2022-11-16T20:34:05.740Z,7.94
2022-11-16T20:36:33.464Z,7.92
2022-11-16T20:39:00.888Z,7.80
2022-11-16T20:41:32.216Z,7.89
2022-11-16T20:44:00.811Z,7.85
2022-11-16T20:46:29.371Z,7.90
2022-11-16T20:48:56.210Z,7.91
2022-11-16T20:51:23.892Z,7.90
2022-11-16T20:53:50.895Z,7.85
2022-11-16T20:56:18.298Z,7.88
2022-11-16T20:58:46.031Z,7.90
2022-11-16T21:01:14.817Z,7.84
2022-11-16T21:03:41.401Z,7.89
2022-11-16T21:06:08.168Z,7.89
2022-11-16T21:08:35.625Z,7.96
2022-11-16T21:11:03.128Z,7.94
2022-11-16T21:13:29.513Z,7.95
2022-11-16T21:16:04.880Z,7.94
2022-11-16T21:18:31.787Z,7.90
2022-11-16T21:22:20.696Z,7.95
2022-11-16T21:24:47.114Z,7.92
2022-11-16T21:27:13.501Z,7.82
2022-11-16T21:29:39.891Z,7.92
2022-11-16T21:32:40.137Z,7.94
2022-11-16T21:35:06.786Z,7.87
2022-11-16T21:37:33.292Z,7.98
2022-11-16T21:39:59.718Z,7.95
2022-11-16T21:42:26.110Z,8.01
2022-11-16T21:44:52.709Z,8.14
2022-11-16T21:47:21.122Z,8.03
2022-11-16T21:50:16.462Z,8.16
2022-11-16T21:54:20.658Z,8.23
2022-11-16T21:58:38.669Z,8.04
2022-11-16T22:01:05.274Z,7.95
2022-11-16T22:03:32.794Z,7.99
2022-11-16T22:06:02.671Z,7.97
2022-11-16T22:08:29.793Z,8.13
2022-11-16T22:10:56.208Z,8.13
2022-11-16T22:14:03.619Z,8.09
2022-11-16T22:16:30.144Z,8.03
2022-11-16T22:18:56.652Z,8.06
2022-11-16T22:21:23.109Z,8.09
2022-11-16T22:23:49.556Z,8.07
2022-11-16T22:26:16.114Z,8.05
2022-11-16T22:29:30.817Z,8.08
2022-11-16T22:31:57.271Z,8.10
2022-11-16T22:34:23.853Z,8.14
2022-11-16T22:36:50.287Z,8.24
2022-11-16T22:39:16.693Z,8.25
2022-11-16T22:41:43.478Z,8.20
2022-11-16T22:44:09.893Z,8.18
2022-11-16T22:46:36.373Z,8.13
2022-11-16T22:49:02.973Z,8.11
2022-11-16T22:52:41.421Z,8.09
2022-11-16T22:55:08.268Z,8.05
2022-11-16T22:57:34.804Z,8.11
2022-11-16T23:00:01.245Z,8.07
2022-11-16T23:02:27.988Z,8.05
2022-11-16T23:04:54.349Z,8.06
2022-11-16T23:07:20.970Z,8.13
2022-11-16T23:09:47.534Z,8.10
2022-11-16T23:12:14.200Z,8.09
2022-11-16T23:14:40.904Z,8.21
2022-11-16T23:17:07.501Z,8.18
2022-11-16T23:19:34.208Z,8.17
2022-11-16T23:22:00.811Z,8.23
2022-11-16T23:24:27.226Z,8.23
2022-11-16T23:26:53.956Z,8.19
2022-11-16T23:29:20.306Z,8.18
2022-11-16T23:31:46.763Z,8.23
2022-11-16T23:34:13.138Z,8.26
2022-11-16T23:36:39.487Z,8.24
2022-11-16T23:39:06.001Z,8.22
2022-11-16T23:41:32.391Z,8.27
2022-11-16T23:43:58.758Z,8.27
2022-11-16T23:46:30.165Z,8.28
2022-11-16T23:48:57.801Z,8.26
2022-11-16T23:51:25.111Z,8.32
2022-11-16T23:53:52.998Z,8.35
2022-11-16T23:56:21.205Z,8.40
2022-11-16T23:58:48.142Z,8.46
